sensor_id;sensor_type;location;lat;lon;timestamp;temperature;humidity
21861;DHT22;11095;48.066;8.540;2023-07-13T00:02:16;17.90;99.90
21861;DHT22;11095;48.066;8.540;2023-07-13T00:04:42;17.80;99.90
21861;DHT22;11095;48.066;8.540;2023-07-13T00:07:08;17.80;99.90
21861;DHT22;11095;48.066;8.540;2023-07-13T00:09:34;17.80;99.90
21861;DHT22;11095;48.066;8.540;2023-07-13T00:12:00;17.70;99.90
21861;DHT22;11095;48.066;8.540;2023-07-13T00:14:28;17.70;99.90
21861;DHT22;11095;48.066;8.540;2023-07-13T00:16:54;17.60;99.90
21861;DHT22;11095;48.066;8.540;2023-07-13T00:19:20;17.60;99.90
21861;DHT22;11095;48.066;8.540;2023-07-13T00:21:46;17.60;99.90
21861;DHT22;11095;48.066;8.540;2023-07-13T00:24:15;17.60;99.90
21861;DHT22;11095;48.066;8.540;2023-07-13T00:26:42;17.50;99.90
21861;DHT22;11095;48.066;8.540;2023-07-13T00:29:12;17.50;99.90
21861;DHT22;11095;48.066;8.540;2023-07-13T00:31:38;17.50;99.90
21861;DHT22;11095;48.066;8.540;2023-07-13T00:34:03;17.40;99.90
21861;DHT22;11095;48.066;8.540;2023-07-13T00:36:30;17.40;99.90
21861;DHT22;11095;48.066;8.540;2023-07-13T00:38:56;17.40;99.90
21861;DHT22;11095;48.066;8.540;2023-07-13T00:41:21;17.30;99.90
21861;DHT22;11095;48.066;8.540;2023-07-13T00:43:47;17.30;99.90
21861;DHT22;11095;48.066;8.540;2023-07-13T00:48:48;17.20;99.90
21861;DHT22;11095;48.066;8.540;2023-07-13T00:51:19;17.20;99.90
21861;DHT22;11095;48.066;8.540;2023-07-13T00:53:46;17.20;99.90
21861;DHT22;11095;48.066;8.540;2023-07-13T00:56:12;17.10;99.90
21861;DHT22;11095;48.066;8.540;2023-07-13T00:58:38;17.10;99.90
21861;DHT22;11095;48.066;8.540;2023-07-13T01:01:03;17.10;99.90
21861;DHT22;11095;48.066;8.540;2023-07-13T01:03:29;17.10;99.90
21861;DHT22;11095;48.066;8.540;2023-07-13T01:05:55;17.10;99.90
21861;DHT22;11095;48.066;8.540;2023-07-13T01:08:21;17.10;99.90
21861;DHT22;11095;48.066;8.540;2023-07-13T01:10:55;17.10;99.90
21861;DHT22;11095;48.066;8.540;2023-07-13T01:13:20;17.10;99.90
21861;DHT22;11095;48.066;8.540;2023-07-13T01:15:48;17.10;99.90
21861;DHT22;11095;48.066;8.540;2023-07-13T01:18:25;17.10;99.90
21861;DHT22;11095;48.066;8.540;2023-07-13T01:21:00;17.20;99.90
21861;DHT22;11095;48.066;8.540;2023-07-13T01:23:27;17.20;99.90
21861;DHT22;11095;48.066;8.540;2023-07-13T01:25:54;17.20;99.90
21861;DHT22;11095;48.066;8.540;2023-07-13T01:28:21;17.30;99.90
21861;DHT22;11095;48.066;8.540;2023-07-13T01:30:47;17.30;99.90
21861;DHT22;11095;48.066;8.540;2023-07-13T01:33:15;17.30;99.90
21861;DHT22;11095;48.066;8.540;2023-07-13T01:35:42;17.30;99.90
21861;DHT22;11095;48.066;8.540;2023-07-13T01:38:10;17.30;99.90
21861;DHT22;11095;48.066;8.540;2023-07-13T01:40:37;17.30;99.90
21861;DHT22;11095;48.066;8.540;2023-07-13T01:43:03;17.20;99.90
21861;DHT22;11095;48.066;8.540;2023-07-13T01:45:29;17.20;99.90
21861;DHT22;11095;48.066;8.540;2023-07-13T01:47:55;17.10;99.90
21861;DHT22;11095;48.066;8.540;2023-07-13T01:50:20;17.10;99.90
21861;DHT22;11095;48.066;8.540;2023-07-13T01:52:46;17.10;99.90
21861;DHT22;11095;48.066;8.540;2023-07-13T01:55:12;17.10;99.90
21861;DHT22;11095;48.066;8.540;2023-07-13T01:57:37;17.10;99.90
21861;DHT22;11095;48.066;8.540;2023-07-13T02:00:04;17.10;99.90
21861;DHT22;11095;48.066;8.540;2023-07-13T02:02:30;17.10;99.90
21861;DHT22;11095;48.066;8.540;2023-07-13T02:04:56;17.10;99.90
21861;DHT22;11095;48.066;8.540;2023-07-13T02:07:22;17.10;99.90
21861;DHT22;11095;48.066;8.540;2023-07-13T02:09:47;17.10;99.90
21861;DHT22;11095;48.066;8.540;2023-07-13T02:12:13;17.10;99.90
21861;DHT22;11095;48.066;8.540;2023-07-13T02:14:39;17.00;99.90
21861;DHT22;11095;48.066;8.540;2023-07-13T02:17:05;17.00;99.90
21861;DHT22;11095;48.066;8.540;2023-07-13T02:19:31;17.00;99.90
21861;DHT22;11095;48.066;8.540;2023-07-13T02:21:57;17.00;99.90
21861;DHT22;11095;48.066;8.540;2023-07-13T02:24:22;17.10;99.90
21861;DHT22;11095;48.066;8.540;2023-07-13T02:26:48;17.10;99.90
21861;DHT22;11095;48.066;8.540;2023-07-13T02:29:14;17.10;99.90
21861;DHT22;11095;48.066;8.540;2023-07-13T02:31:40;17.00;99.90
21861;DHT22;11095;48.066;8.540;2023-07-13T02:34:05;17.00;99.90
21861;DHT22;11095;48.066;8.540;2023-07-13T02:36:31;17.00;99.90
21861;DHT22;11095;48.066;8.540;2023-07-13T02:39:00;17.00;99.90
21861;DHT22;11095;48.066;8.540;2023-07-13T02:41:26;17.00;99.90
21861;DHT22;11095;48.066;8.540;2023-07-13T02:43:51;16.90;99.90
21861;DHT22;11095;48.066;8.540;2023-07-13T02:46:17;16.90;99.90
21861;DHT22;11095;48.066;8.540;2023-07-13T02:48:45;16.90;99.90
21861;DHT22;11095;48.066;8.540;2023-07-13T02:51:10;16.90;99.90
21861;DHT22;11095;48.066;8.540;2023-07-13T02:53:36;16.90;99.90
21861;DHT22;11095;48.066;8.540;2023-07-13T02:56:03;16.80;99.90
21861;DHT22;11095;48.066;8.540;2023-07-13T02:58:29;16.80;99.90
21861;DHT22;11095;48.066;8.540;2023-07-13T03:00:55;16.70;99.90
21861;DHT22;11095;48.066;8.540;2023-07-13T03:03:21;16.70;99.90
21861;DHT22;11095;48.066;8.540;2023-07-13T03:05:47;16.60;99.90
21861;DHT22;11095;48.066;8.540;2023-07-13T03:08:15;16.50;99.90
21861;DHT22;11095;48.066;8.540;2023-07-13T03:10:41;16.40;99.90
21861;DHT22;11095;48.066;8.540;2023-07-13T03:13:07;16.40;99.90
21861;DHT22;11095;48.066;8.540;2023-07-13T03:15:32;16.30;99.90
21861;DHT22;11095;48.066;8.540;2023-07-13T03:17:58;16.20;99.90
21861;DHT22;11095;48.066;8.540;2023-07-13T03:20:24;16.20;99.90
21861;DHT22;11095;48.066;8.540;2023-07-13T03:22:49;16.20;99.90
21861;DHT22;11095;48.066;8.540;2023-07-13T03:25:15;16.10;99.90
21861;DHT22;11095;48.066;8.540;2023-07-13T03:27:40;16.10;99.90
21861;DHT22;11095;48.066;8.540;2023-07-13T03:30:06;16.10;99.90
21861;DHT22;11095;48.066;8.540;2023-07-13T03:32:32;16.10;99.90
21861;DHT22;11095;48.066;8.540;2023-07-13T03:34:58;16.10;99.90
21861;DHT22;11095;48.066;8.540;2023-07-13T03:37:24;16.00;99.90
21861;DHT22;11095;48.066;8.540;2023-07-13T03:39:50;16.00;99.90
21861;DHT22;11095;48.066;8.540;2023-07-13T03:42:16;16.00;99.90
21861;DHT22;11095;48.066;8.540;2023-07-13T03:44:42;16.00;99.90
21861;DHT22;11095;48.066;8.540;2023-07-13T03:47:07;16.00;99.90
21861;DHT22;11095;48.066;8.540;2023-07-13T03:49:34;16.00;99.90
21861;DHT22;11095;48.066;8.540;2023-07-13T03:52:00;16.00;99.90
21861;DHT22;11095;48.066;8.540;2023-07-13T03:54:26;16.10;99.90
21861;DHT22;11095;48.066;8.540;2023-07-13T03:56:51;16.10;99.90
21861;DHT22;11095;48.066;8.540;2023-07-13T03:59:17;16.10;99.90
21861;DHT22;11095;48.066;8.540;2023-07-13T04:01:44;16.10;99.90
21861;DHT22;11095;48.066;8.540;2023-07-13T04:04:09;16.10;99.90
21861;DHT22;11095;48.066;8.540;2023-07-13T04:06:35;16.00;99.90
21861;DHT22;11095;48.066;8.540;2023-07-13T04:09:02;16.00;99.90
21861;DHT22;11095;48.066;8.540;2023-07-13T04:11:30;16.10;99.90
21861;DHT22;11095;48.066;8.540;2023-07-13T04:13:57;16.10;99.90
21861;DHT22;11095;48.066;8.540;2023-07-13T04:16:23;16.10;99.90
21861;DHT22;11095;48.066;8.540;2023-07-13T04:18:49;16.20;99.90
21861;DHT22;11095;48.066;8.540;2023-07-13T04:21:15;16.20;99.90
21861;DHT22;11095;48.066;8.540;2023-07-13T04:23:41;16.30;99.90
21861;DHT22;11095;48.066;8.540;2023-07-13T04:26:07;16.30;99.90
21861;DHT22;11095;48.066;8.540;2023-07-13T04:28:33;16.40;99.90
21861;DHT22;11095;48.066;8.540;2023-07-13T04:30:59;16.40;99.90
21861;DHT22;11095;48.066;8.540;2023-07-13T04:33:26;16.40;99.90
21861;DHT22;11095;48.066;8.540;2023-07-13T04:35:53;16.60;99.90
21861;DHT22;11095;48.066;8.540;2023-07-13T04:38:22;16.70;99.90
21861;DHT22;11095;48.066;8.540;2023-07-13T04:40:49;16.80;99.90
21861;DHT22;11095;48.066;8.540;2023-07-13T04:43:16;16.80;99.90
21861;DHT22;11095;48.066;8.540;2023-07-13T04:45:41;16.70;99.90
21861;DHT22;11095;48.066;8.540;2023-07-13T04:48:07;16.80;99.90
21861;DHT22;11095;48.066;8.540;2023-07-13T04:50:36;16.80;99.90
21861;DHT22;11095;48.066;8.540;2023-07-13T04:53:01;16.80;99.90
21861;DHT22;11095;48.066;8.540;2023-07-13T04:55:28;16.70;99.90
21861;DHT22;11095;48.066;8.540;2023-07-13T04:57:56;16.70;99.90
21861;DHT22;11095;48.066;8.540;2023-07-13T05:00:21;16.70;99.90
21861;DHT22;11095;48.066;8.540;2023-07-13T05:02:47;16.70;99.90
21861;DHT22;11095;48.066;8.540;2023-07-13T05:05:13;16.80;99.90
21861;DHT22;11095;48.066;8.540;2023-07-13T05:07:39;16.90;99.90
21861;DHT22;11095;48.066;8.540;2023-07-13T05:10:05;17.10;99.90
21861;DHT22;11095;48.066;8.540;2023-07-13T05:12:30;17.30;99.90
21861;DHT22;11095;48.066;8.540;2023-07-13T05:14:56;17.70;99.90
21861;DHT22;11095;48.066;8.540;2023-07-13T05:17:22;18.10;99.90
21861;DHT22;11095;48.066;8.540;2023-07-13T05:19:47;19.00;99.90
21861;DHT22;11095;48.066;8.540;2023-07-13T05:22:13;19.80;99.90
21861;DHT22;11095;48.066;8.540;2023-07-13T05:24:39;20.20;99.90
21861;DHT22;11095;48.066;8.540;2023-07-13T05:27:05;20.30;99.90
21861;DHT22;11095;48.066;8.540;2023-07-13T05:29:30;20.20;99.90
21861;DHT22;11095;48.066;8.540;2023-07-13T05:31:56;20.20;99.90
21861;DHT22;11095;48.066;8.540;2023-07-13T05:34:22;20.10;99.90
21861;DHT22;11095;48.066;8.540;2023-07-13T05:36:47;20.10;99.90
21861;DHT22;11095;48.066;8.540;2023-07-13T05:39:13;20.40;99.90
21861;DHT22;11095;48.066;8.540;2023-07-13T05:41:39;21.80;99.90
21861;DHT22;11095;48.066;8.540;2023-07-13T05:44:05;23.30;99.90
21861;DHT22;11095;48.066;8.540;2023-07-13T05:46:30;24.00;99.90
21861;DHT22;11095;48.066;8.540;2023-07-13T05:48:56;23.70;99.90
21861;DHT22;11095;48.066;8.540;2023-07-13T05:51:22;23.30;99.90
21861;DHT22;11095;48.066;8.540;2023-07-13T05:53:47;22.80;99.90
21861;DHT22;11095;48.066;8.540;2023-07-13T05:56:13;22.60;99.90
21861;DHT22;11095;48.066;8.540;2023-07-13T05:58:38;22.40;99.90
21861;DHT22;11095;48.066;8.540;2023-07-13T06:01:08;21.80;99.90
21861;DHT22;11095;48.066;8.540;2023-07-13T06:03:34;21.30;99.90
21861;DHT22;11095;48.066;8.540;2023-07-13T06:06:00;20.40;99.90
21861;DHT22;11095;48.066;8.540;2023-07-13T06:08:26;20.30;99.90
21861;DHT22;11095;48.066;8.540;2023-07-13T06:10:52;20.70;99.90
21861;DHT22;11095;48.066;8.540;2023-07-13T06:13:18;21.80;99.90
21861;DHT22;11095;48.066;8.540;2023-07-13T06:15:51;23.10;99.90
21861;DHT22;11095;48.066;8.540;2023-07-13T06:18:17;24.40;99.90
21861;DHT22;11095;48.066;8.540;2023-07-13T06:20:42;25.20;99.90
21861;DHT22;11095;48.066;8.540;2023-07-13T06:23:08;25.70;99.90
21861;DHT22;11095;48.066;8.540;2023-07-13T06:25:34;26.00;99.90
21861;DHT22;11095;48.066;8.540;2023-07-13T06:27:59;26.20;99.90
21861;DHT22;11095;48.066;8.540;2023-07-13T06:30:26;27.30;99.90
21861;DHT22;11095;48.066;8.540;2023-07-13T06:32:52;27.80;99.90
21861;DHT22;11095;48.066;8.540;2023-07-13T06:35:17;28.60;98.30
21861;DHT22;11095;48.066;8.540;2023-07-13T06:37:43;29.30;97.40
21861;DHT22;11095;48.066;8.540;2023-07-13T06:40:09;30.40;94.80
21861;DHT22;11095;48.066;8.540;2023-07-13T06:42:35;30.20;92.10
21861;DHT22;11095;48.066;8.540;2023-07-13T06:45:00;28.50;92.20
21861;DHT22;11095;48.066;8.540;2023-07-13T06:49:55;28.70;91.20
21861;DHT22;11095;48.066;8.540;2023-07-13T06:52:20;29.90;91.50
21861;DHT22;11095;48.066;8.540;2023-07-13T06:54:46;31.00;86.60
21861;DHT22;11095;48.066;8.540;2023-07-13T06:57:12;30.30;86.20
21861;DHT22;11095;48.066;8.540;2023-07-13T06:59:37;31.10;84.30
21861;DHT22;11095;48.066;8.540;2023-07-13T07:02:03;30.80;80.60
21861;DHT22;11095;48.066;8.540;2023-07-13T07:04:29;28.30;84.40
21861;DHT22;11095;48.066;8.540;2023-07-13T07:06:54;28.10;87.20
21861;DHT22;11095;48.066;8.540;2023-07-13T07:09:20;29.60;84.80
21861;DHT22;11095;48.066;8.540;2023-07-13T07:11:45;29.40;81.90
21861;DHT22;11095;48.066;8.540;2023-07-13T07:14:11;27.80;84.20
21861;DHT22;11095;48.066;8.540;2023-07-13T07:16:36;28.60;83.30
21861;DHT22;11095;48.066;8.540;2023-07-13T07:19:02;30.10;79.80
21861;DHT22;11095;48.066;8.540;2023-07-13T07:21:28;31.30;79.40
21861;DHT22;11095;48.066;8.540;2023-07-13T07:23:53;32.30;73.50
21861;DHT22;11095;48.066;8.540;2023-07-13T07:26:19;33.20;71.60
21861;DHT22;11095;48.066;8.540;2023-07-13T07:28:45;33.90;69.00
21861;DHT22;11095;48.066;8.540;2023-07-13T07:31:10;34.80;69.20
21861;DHT22;11095;48.066;8.540;2023-07-13T07:33:36;35.90;62.40
21861;DHT22;11095;48.066;8.540;2023-07-13T07:36:02;36.90;62.80
21861;DHT22;11095;48.066;8.540;2023-07-13T07:38:28;38.30;59.80
21861;DHT22;11095;48.066;8.540;2023-07-13T07:40:54;39.40;56.50
21861;DHT22;11095;48.066;8.540;2023-07-13T07:43:19;39.90;53.20
21861;DHT22;11095;48.066;8.540;2023-07-13T07:45:45;40.70;51.70
21861;DHT22;11095;48.066;8.540;2023-07-13T07:48:11;40.90;49.80
21861;DHT22;11095;48.066;8.540;2023-07-13T07:50:38;40.90;48.80
21861;DHT22;11095;48.066;8.540;2023-07-13T07:53:04;41.20;47.50
21861;DHT22;11095;48.066;8.540;2023-07-13T07:55:33;41.30;46.20
21861;DHT22;11095;48.066;8.540;2023-07-13T07:57:59;40.50;45.10
21861;DHT22;11095;48.066;8.540;2023-07-13T08:00:24;39.60;46.40
21861;DHT22;11095;48.066;8.540;2023-07-13T08:02:50;39.00;46.50
21861;DHT22;11095;48.066;8.540;2023-07-13T08:05:16;37.40;46.70
21861;DHT22;11095;48.066;8.540;2023-07-13T08:07:41;35.30;49.80
21861;DHT22;11095;48.066;8.540;2023-07-13T08:10:07;33.70;52.60
21861;DHT22;11095;48.066;8.540;2023-07-13T08:12:38;32.20;53.60
21861;DHT22;11095;48.066;8.540;2023-07-13T08:15:04;31.60;55.60
21861;DHT22;11095;48.066;8.540;2023-07-13T08:17:31;30.80;56.30
21861;DHT22;11095;48.066;8.540;2023-07-13T08:19:56;30.30;57.80
21861;DHT22;11095;48.066;8.540;2023-07-13T08:22:22;29.80;59.00
21861;DHT22;11095;48.066;8.540;2023-07-13T08:24:48;30.60;59.10
21861;DHT22;11095;48.066;8.540;2023-07-13T08:27:20;32.20;57.20
21861;DHT22;11095;48.066;8.540;2023-07-13T08:29:48;33.40;54.80
21861;DHT22;11095;48.066;8.540;2023-07-13T08:32:13;34.90;54.40
21861;DHT22;11095;48.066;8.540;2023-07-13T08:34:39;36.30;52.80
21861;DHT22;11095;48.066;8.540;2023-07-13T08:37:06;37.00;51.40
21861;DHT22;11095;48.066;8.540;2023-07-13T08:39:32;36.70;50.90
21861;DHT22;11095;48.066;8.540;2023-07-13T08:42:04;36.60;50.30
21861;DHT22;11095;48.066;8.540;2023-07-13T08:47:40;34.60;51.00
21861;DHT22;11095;48.066;8.540;2023-07-13T08:50:13;33.00;53.10
21861;DHT22;11095;48.066;8.540;2023-07-13T08:52:41;31.90;55.10
21861;DHT22;11095;48.066;8.540;2023-07-13T08:57:45;29.20;57.60
21861;DHT22;11095;48.066;8.540;2023-07-13T09:00:12;27.80;61.30
21861;DHT22;11095;48.066;8.540;2023-07-13T09:02:58;28.60;62.90
21861;DHT22;11095;48.066;8.540;2023-07-13T09:05:31;28.80;59.70
21861;DHT22;11095;48.066;8.540;2023-07-13T09:10:49;28.30;63.40
21861;DHT22;11095;48.066;8.540;2023-07-13T09:15:47;28.10;62.20
21861;DHT22;11095;48.066;8.540;2023-07-13T09:18:21;27.80;62.40
21861;DHT22;11095;48.066;8.540;2023-07-13T09:20:54;27.30;64.20
21861;DHT22;11095;48.066;8.540;2023-07-13T09:23:24;27.00;66.10
21861;DHT22;11095;48.066;8.540;2023-07-13T09:25:53;26.80;66.40
21861;DHT22;11095;48.066;8.540;2023-07-13T09:28:35;27.00;66.50
21861;DHT22;11095;48.066;8.540;2023-07-13T09:31:24;27.00;64.00
21861;DHT22;11095;48.066;8.540;2023-07-13T09:33:51;27.30;65.30
21861;DHT22;11095;48.066;8.540;2023-07-13T09:36:32;27.90;65.50
21861;DHT22;11095;48.066;8.540;2023-07-13T09:39:05;28.60;63.60
21861;DHT22;11095;48.066;8.540;2023-07-13T09:41:57;29.40;63.60
21861;DHT22;11095;48.066;8.540;2023-07-13T09:44:36;30.30;62.30
21861;DHT22;11095;48.066;8.540;2023-07-13T09:47:02;29.80;58.80
21861;DHT22;11095;48.066;8.540;2023-07-13T09:49:36;28.70;59.10
21861;DHT22;11095;48.066;8.540;2023-07-13T09:52:10;27.50;60.00
21861;DHT22;11095;48.066;8.540;2023-07-13T09:54:36;25.80;63.90
21861;DHT22;11095;48.066;8.540;2023-07-13T09:57:12;24.90;67.20
21861;DHT22;11095;48.066;8.540;2023-07-13T09:59:48;24.80;69.10
21861;DHT22;11095;48.066;8.540;2023-07-13T10:02:35;24.90;68.80
21861;DHT22;11095;48.066;8.540;2023-07-13T10:05:06;23.80;71.60
21861;DHT22;11095;48.066;8.540;2023-07-13T10:07:38;23.30;73.60
21861;DHT22;11095;48.066;8.540;2023-07-13T10:10:17;22.70;75.40
21861;DHT22;11095;48.066;8.540;2023-07-13T10:12:44;22.80;77.40
21861;DHT22;11095;48.066;8.540;2023-07-13T10:15:19;22.40;77.60
21861;DHT22;11095;48.066;8.540;2023-07-13T10:17:45;21.50;80.30
21861;DHT22;11095;48.066;8.540;2023-07-13T10:20:11;21.90;80.90
21861;DHT22;11095;48.066;8.540;2023-07-13T10:23:10;22.40;79.30
21861;DHT22;11095;48.066;8.540;2023-07-13T10:25:42;22.20;80.80
21861;DHT22;11095;48.066;8.540;2023-07-13T10:28:33;22.10;80.80
21861;DHT22;11095;48.066;8.540;2023-07-13T10:31:01;22.30;80.60
21861;DHT22;11095;48.066;8.540;2023-07-13T10:33:28;22.80;81.50
21861;DHT22;11095;48.066;8.540;2023-07-13T10:36:13;23.30;81.00
21861;DHT22;11095;48.066;8.540;2023-07-13T10:38:40;23.30;80.50
21861;DHT22;11095;48.066;8.540;2023-07-13T10:41:11;22.90;82.00
21861;DHT22;11095;48.066;8.540;2023-07-13T10:43:46;23.10;82.20
21861;DHT22;11095;48.066;8.540;2023-07-13T10:46:17;23.40;81.60
21861;DHT22;11095;48.066;8.540;2023-07-13T10:48:46;23.40;78.90
21861;DHT22;11095;48.066;8.540;2023-07-13T10:51:14;23.70;79.00
21861;DHT22;11095;48.066;8.540;2023-07-13T10:53:40;24.10;78.40
21861;DHT22;11095;48.066;8.540;2023-07-13T10:56:28;24.30;78.10
21861;DHT22;11095;48.066;8.540;2023-07-13T10:59:10;24.30;78.20
21861;DHT22;11095;48.066;8.540;2023-07-13T11:01:48;24.30;77.10
21861;DHT22;11095;48.066;8.540;2023-07-13T11:04:19;24.70;75.10
21861;DHT22;11095;48.066;8.540;2023-07-13T11:06:48;24.30;73.80
21861;DHT22;11095;48.066;8.540;2023-07-13T11:15:05;22.70;79.10
21861;DHT22;11095;48.066;8.540;2023-07-13T11:17:36;22.90;81.20
21861;DHT22;11095;48.066;8.540;2023-07-13T11:22:44;23.20;78.60
21861;DHT22;11095;48.066;8.540;2023-07-13T11:25:36;22.80;78.40
21861;DHT22;11095;48.066;8.540;2023-07-13T11:38:43;25.70;77.20
21861;DHT22;11095;48.066;8.540;2023-07-13T11:41:21;26.20;74.40
21861;DHT22;11095;48.066;8.540;2023-07-13T11:43:55;26.40;72.60
21861;DHT22;11095;48.066;8.540;2023-07-13T11:46:27;26.50;72.90
21861;DHT22;11095;48.066;8.540;2023-07-13T11:48:53;26.60;72.50
21861;DHT22;11095;48.066;8.540;2023-07-13T11:51:33;26.60;69.10
21861;DHT22;11095;48.066;8.540;2023-07-13T11:54:28;26.10;68.00
21861;DHT22;11095;48.066;8.540;2023-07-13T11:56:58;26.10;70.60
21861;DHT22;11095;48.066;8.540;2023-07-13T11:59:27;25.90;67.90
21861;DHT22;11095;48.066;8.540;2023-07-13T12:01:54;25.80;68.80
21861;DHT22;11095;48.066;8.540;2023-07-13T12:04:27;25.30;69.10
21861;DHT22;11095;48.066;8.540;2023-07-13T12:06:58;25.40;70.60
21861;DHT22;11095;48.066;8.540;2023-07-13T12:09:28;25.80;70.40
21861;DHT22;11095;48.066;8.540;2023-07-13T12:11:57;26.10;67.10
21861;DHT22;11095;48.066;8.540;2023-07-13T12:14:24;26.00;66.50
21861;DHT22;11095;48.066;8.540;2023-07-13T12:16:52;25.80;67.70
21861;DHT22;11095;48.066;8.540;2023-07-13T12:19:21;25.60;68.30
21861;DHT22;11095;48.066;8.540;2023-07-13T12:21:48;25.40;69.40
21861;DHT22;11095;48.066;8.540;2023-07-13T12:24:20;25.30;69.70
21861;DHT22;11095;48.066;8.540;2023-07-13T12:27:04;25.40;73.20
21861;DHT22;11095;48.066;8.540;2023-07-13T12:29:32;25.50;69.70
21861;DHT22;11095;48.066;8.540;2023-07-13T12:31:58;25.20;70.60
21861;DHT22;11095;48.066;8.540;2023-07-13T12:34:25;25.60;80.00
21861;DHT22;11095;48.066;8.540;2023-07-13T12:36:56;25.90;77.80
21861;DHT22;11095;48.066;8.540;2023-07-13T12:39:33;25.80;78.30
21861;DHT22;11095;48.066;8.540;2023-07-13T12:42:23;25.80;76.70
21861;DHT22;11095;48.066;8.540;2023-07-13T12:45:05;25.80;76.80
21861;DHT22;11095;48.066;8.540;2023-07-13T12:47:42;26.00;77.10
21861;DHT22;11095;48.066;8.540;2023-07-13T12:50:21;26.60;76.10
21861;DHT22;11095;48.066;8.540;2023-07-13T12:52:52;26.70;73.80
21861;DHT22;11095;48.066;8.540;2023-07-13T12:55:20;25.90;69.20
21861;DHT22;11095;48.066;8.540;2023-07-13T13:02:49;25.40;74.00
21861;DHT22;11095;48.066;8.540;2023-07-13T13:05:15;25.50;72.30
21861;DHT22;11095;48.066;8.540;2023-07-13T13:07:41;25.60;68.20
21861;DHT22;11095;48.066;8.540;2023-07-13T13:10:12;24.90;68.10
21861;DHT22;11095;48.066;8.540;2023-07-13T13:12:39;25.00;69.10
21861;DHT22;11095;48.066;8.540;2023-07-13T13:15:08;24.80;67.90
21861;DHT22;11095;48.066;8.540;2023-07-13T13:17:34;24.60;68.20
21861;DHT22;11095;48.066;8.540;2023-07-13T13:20:00;24.50;70.80
21861;DHT22;11095;48.066;8.540;2023-07-13T13:22:25;24.90;74.00
21861;DHT22;11095;48.066;8.540;2023-07-13T13:24:51;25.60;74.20
21861;DHT22;11095;48.066;8.540;2023-07-13T13:27:19;26.20;73.10
21861;DHT22;11095;48.066;8.540;2023-07-13T13:29:46;26.50;69.70
21861;DHT22;11095;48.066;8.540;2023-07-13T13:32:13;26.20;69.10
21861;DHT22;11095;48.066;8.540;2023-07-13T13:34:38;26.60;68.90
21861;DHT22;11095;48.066;8.540;2023-07-13T13:37:17;26.90;62.50
21861;DHT22;11095;48.066;8.540;2023-07-13T13:39:44;27.00;59.90
21861;DHT22;11095;48.066;8.540;2023-07-13T13:42:10;27.00;59.50
21861;DHT22;11095;48.066;8.540;2023-07-13T13:44:35;27.00;59.80
21861;DHT22;11095;48.066;8.540;2023-07-13T13:47:01;27.20;60.90
21861;DHT22;11095;48.066;8.540;2023-07-13T13:49:29;27.30;57.70
21861;DHT22;11095;48.066;8.540;2023-07-13T13:51:55;27.50;57.80
21861;DHT22;11095;48.066;8.540;2023-07-13T13:54:23;27.70;56.00
21861;DHT22;11095;48.066;8.540;2023-07-13T13:56:50;27.90;55.10
21861;DHT22;11095;48.066;8.540;2023-07-13T13:59:16;28.10;55.10
21861;DHT22;11095;48.066;8.540;2023-07-13T14:01:43;28.30;53.60
21861;DHT22;11095;48.066;8.540;2023-07-13T14:04:16;28.50;49.60
21861;DHT22;11095;48.066;8.540;2023-07-13T14:06:43;28.20;50.20
21861;DHT22;11095;48.066;8.540;2023-07-13T14:09:15;28.30;53.60
21861;DHT22;11095;48.066;8.540;2023-07-13T14:11:41;28.10;56.00
21861;DHT22;11095;48.066;8.540;2023-07-13T14:14:22;27.50;57.30
21861;DHT22;11095;48.066;8.540;2023-07-13T14:16:50;27.60;59.60
21861;DHT22;11095;48.066;8.540;2023-07-13T14:19:19;27.60;63.00
21861;DHT22;11095;48.066;8.540;2023-07-13T14:21:45;27.40;63.50
21861;DHT22;11095;48.066;8.540;2023-07-13T14:24:12;27.10;64.00
21861;DHT22;11095;48.066;8.540;2023-07-13T14:26:40;26.80;64.00
21861;DHT22;11095;48.066;8.540;2023-07-13T14:29:13;26.30;65.00
21861;DHT22;11095;48.066;8.540;2023-07-13T14:31:40;25.00;67.40
21861;DHT22;11095;48.066;8.540;2023-07-13T14:34:05;25.10;68.70
21861;DHT22;11095;48.066;8.540;2023-07-13T14:36:33;25.10;69.10
21861;DHT22;11095;48.066;8.540;2023-07-13T14:39:01;25.10;71.50
21861;DHT22;11095;48.066;8.540;2023-07-13T14:41:34;24.80;72.80
21861;DHT22;11095;48.066;8.540;2023-07-13T14:44:00;24.80;72.60
21861;DHT22;11095;48.066;8.540;2023-07-13T14:46:31;25.10;72.70
21861;DHT22;11095;48.066;8.540;2023-07-13T14:49:03;25.50;70.90
21861;DHT22;11095;48.066;8.540;2023-07-13T14:51:30;26.00;69.80
21861;DHT22;11095;48.066;8.540;2023-07-13T14:53:56;26.20;69.60
21861;DHT22;11095;48.066;8.540;2023-07-13T14:56:21;26.20;69.90
21861;DHT22;11095;48.066;8.540;2023-07-13T14:58:47;25.50;69.10
21861;DHT22;11095;48.066;8.540;2023-07-13T15:01:14;25.50;71.40
21861;DHT22;11095;48.066;8.540;2023-07-13T15:03:45;25.70;71.40
21861;DHT22;11095;48.066;8.540;2023-07-13T15:06:12;25.80;71.80
21861;DHT22;11095;48.066;8.540;2023-07-13T15:08:39;25.60;70.80
21861;DHT22;11095;48.066;8.540;2023-07-13T15:11:06;25.50;71.80
21861;DHT22;11095;48.066;8.540;2023-07-13T15:13:32;25.60;72.80
21861;DHT22;11095;48.066;8.540;2023-07-13T15:15:59;25.90;72.20
21861;DHT22;11095;48.066;8.540;2023-07-13T15:18:25;26.30;71.40
21861;DHT22;11095;48.066;8.540;2023-07-13T15:20:53;26.60;71.10
21861;DHT22;11095;48.066;8.540;2023-07-13T15:23:21;26.80;71.40
21861;DHT22;11095;48.066;8.540;2023-07-13T15:25:48;26.60;70.60
21861;DHT22;11095;48.066;8.540;2023-07-13T15:28:14;26.40;69.70
21861;DHT22;11095;48.066;8.540;2023-07-13T15:30:45;25.80;69.90
21861;DHT22;11095;48.066;8.540;2023-07-13T15:35:47;25.30;73.10
21861;DHT22;11095;48.066;8.540;2023-07-13T15:38:22;25.30;72.40
21861;DHT22;11095;48.066;8.540;2023-07-13T15:40:49;25.50;73.20
21861;DHT22;11095;48.066;8.540;2023-07-13T15:43:17;25.10;72.10
21861;DHT22;11095;48.066;8.540;2023-07-13T15:45:43;24.90;74.70
21861;DHT22;11095;48.066;8.540;2023-07-13T15:48:22;25.10;74.90
21861;DHT22;11095;48.066;8.540;2023-07-13T15:50:53;25.10;75.50
21861;DHT22;11095;48.066;8.540;2023-07-13T15:53:24;24.90;75.80
21861;DHT22;11095;48.066;8.540;2023-07-13T15:55:51;25.00;77.00
21861;DHT22;11095;48.066;8.540;2023-07-13T15:58:18;24.50;76.20
21861;DHT22;11095;48.066;8.540;2023-07-13T16:00:44;24.00;78.30
21861;DHT22;11095;48.066;8.540;2023-07-13T16:03:10;23.90;79.90
21861;DHT22;11095;48.066;8.540;2023-07-13T16:05:36;23.90;79.10
21861;DHT22;11095;48.066;8.540;2023-07-13T16:08:03;23.90;79.30
21861;DHT22;11095;48.066;8.540;2023-07-13T16:10:35;23.90;80.00
21861;DHT22;11095;48.066;8.540;2023-07-13T16:13:13;23.90;80.00
21861;DHT22;11095;48.066;8.540;2023-07-13T16:15:39;24.00;79.40
21861;DHT22;11095;48.066;8.540;2023-07-13T16:18:10;24.10;80.30
21861;DHT22;11095;48.066;8.540;2023-07-13T16:20:37;24.20;79.20